Time;durP1;ratioP1;P1;durP2;ratioP2;P2;SDS_P1;SDS_P2;PMS_P1;PMS_P2;Temp;Humidity;BMP_temperature;BMP_pressure;BME280_temperature;BME280_humidity;BME280_pressure;Samples;Min_cycle;Max_cycle;Signal;HPM_P1;HPM_P2
2023/03/15 00:01:22;;;;;;;0.20;0.20;;;;;;;12.42;100.00;98799.75;5054861;28;20035;-62
2023/03/15 00:03:48;;;;;;;0.20;0.20;;;;;;;12.33;100.00;98791.84;5054789;28;20057;-63
2023/03/15 00:06:14;;;;;;;0.20;0.20;;;;;;;12.23;100.00;98791.91;5054842;28;20029;-62
2023/03/15 00:08:46;;;;;;;0.20;0.20;;;;;;;12.14;100.00;98789.56;5054394;28;20041;-62
2023/03/15 00:11:15;;;;;;;0.20;0.20;;;;;;;11.98;100.00;98794.81;5057393;28;20028;-66
2023/03/15 00:13:44;;;;;;;0.20;0.20;;;;;;;12.10;100.00;98799.16;5059016;28;20422;-65
2023/03/15 00:16:10;;;;;;;0.20;0.20;;;;;;;11.94;100.00;98797.66;5056657;28;20025;-62
2023/03/15 00:18:36;;;;;;;0.20;0.20;;;;;;;11.77;100.00;98804.03;5054716;28;20025;-63
2023/03/15 00:21:04;;;;;;;0.30;0.30;;;;;;;11.72;100.00;98784.97;5054219;28;20380;-62
2023/03/15 00:23:32;;;;;;;0.20;0.20;;;;;;;11.69;100.00;98792.16;5053808;28;20033;-62
2023/03/15 00:26:00;;;;;;;0.30;0.30;;;;;;;11.75;100.00;98779.38;5054958;28;20545;-62
2023/03/15 00:28:29;;;;;;;0.20;0.20;;;;;;;11.73;100.00;98786.56;5054591;28;20036;-62
2023/03/15 00:31:15;;;;;;;0.20;0.20;;;;;;;11.67;100.00;98777.84;5054238;28;20033;-63
2023/03/15 00:33:46;;;;;;;0.30;0.30;;;;;;;11.64;100.00;98773.06;5054213;28;20041;-63
2023/03/15 00:36:17;;;;;;;0.20;0.20;;;;;;;11.63;100.00;98768.69;5054197;28;20032;-63
2023/03/15 00:38:46;;;;;;;0.30;0.30;;;;;;;11.71;100.00;98772.22;5054351;28;20025;-62
2023/03/15 00:41:14;;;;;;;0.20;0.20;;;;;;;11.72;100.00;98779.41;5054313;28;20029;-63
2023/03/15 00:43:40;;;;;;;0.20;0.20;;;;;;;11.77;100.00;98777.00;5054398;28;20384;-63
2023/03/15 00:46:09;;;;;;;0.20;0.20;;;;;;;11.75;100.00;98773.00;5054353;28;20434;-63
2023/03/15 00:48:35;;;;;;;0.20;0.20;;;;;;;11.72;100.00;98777.41;5054352;28;20497;-64
2023/03/15 00:51:03;;;;;;;0.20;0.20;;;;;;;11.70;100.00;98771.44;5054174;28;20025;-63
2023/03/15 00:53:32;;;;;;;0.20;0.20;;;;;;;11.73;100.00;98769.84;5053853;28;20032;-63
2023/03/15 00:56:00;;;;;;;0.20;0.20;;;;;;;11.83;100.00;98763.47;5053729;28;20024;-63
2023/03/15 00:58:26;;;;;;;0.20;0.20;;;;;;;11.81;100.00;98765.81;5065128;28;20044;-63
2023/03/15 01:00:51;;;;;;;0.20;0.20;;;;;;;11.91;100.00;98773.34;5073678;28;20036;-64
2023/03/15 01:03:17;;;;;;;0.20;0.20;;;;;;;12.10;100.00;98771.28;5074159;28;20032;-65
2023/03/15 01:05:45;;;;;;;0.20;0.20;;;;;;;12.10;100.00;98763.72;5074099;28;20029;-63
2023/03/15 01:08:10;;;;;;;0.20;0.20;;;;;;;12.07;100.00;98756.94;5073592;28;20032;-63
2023/03/15 01:10:38;;;;;;;0.20;0.20;;;;;;;12.03;100.00;98747.81;5074098;28;20029;-64
2023/03/15 01:13:06;;;;;;;0.20;0.20;;;;;;;12.03;100.00;98747.00;5073750;28;20059;-64
2023/03/15 01:15:33;;;;;;;0.20;0.20;;;;;;;11.92;100.00;98738.72;5073425;28;20049;-63
2023/03/15 01:18:01;;;;;;;0.20;0.20;;;;;;;11.94;100.00;98725.19;5073562;28;20111;-63
2023/03/15 01:20:27;;;;;;;0.20;0.20;;;;;;;11.90;100.00;98720.81;5073694;28;20021;-64
2023/03/15 01:22:55;;;;;;;0.20;0.20;;;;;;;11.86;100.00;98718.03;5073716;28;20082;-64
2023/03/15 01:25:22;;;;;;;0.20;0.20;;;;;;;11.80;100.00;98714.06;5073402;28;20025;-64
2023/03/15 01:27:48;;;;;;;0.20;0.20;;;;;;;11.80;100.00;98717.66;5073728;28;20371;-64
2023/03/15 01:30:16;;;;;;;0.20;0.20;;;;;;;11.85;100.00;98698.94;5073706;28;20027;-67
2023/03/15 01:32:41;;;;;;;0.20;0.20;;;;;;;11.82;100.00;98694.97;5073059;28;20074;-64
2023/03/15 01:35:10;;;;;;;0.20;0.20;;;;;;;11.83;100.00;98693.78;5072700;28;20033;-68
2023/03/15 01:37:38;;;;;;;0.20;0.20;;;;;;;11.81;100.00;98693.38;5072291;28;20048;-67
2023/03/15 01:40:09;;;;;;;0.20;0.20;;;;;;;11.91;100.00;98686.97;5072974;28;20032;-66
2023/03/15 01:42:51;;;;;;;0.20;0.20;;;;;;;11.87;100.00;98700.13;5072989;28;20233;-66
2023/03/15 01:45:52;;;;;;;0.20;0.20;;;;;;;11.83;100.00;98712.50;5073569;28;20356;-69
2023/03/15 01:48:21;;;;;;;0.20;0.20;;;;;;;11.73;100.00;98700.19;5074087;28;20050;-68
2023/03/15 01:50:47;;;;;;;0.20;0.20;;;;;;;11.64;100.00;98705.41;5074234;28;20037;-66
2023/03/15 01:53:16;;;;;;;0.25;0.25;;;;;;;11.49;100.00;98688.75;5072928;28;20024;-65
2023/03/15 01:55:42;;;;;;;0.20;0.20;;;;;;;11.52;100.00;98679.59;5073241;28;20352;-64
2023/03/15 01:58:10;;;;;;;0.20;0.20;;;;;;;11.37;100.00;98675.28;5063144;28;20048;-64
2023/03/15 02:00:39;;;;;;;0.20;0.20;;;;;;;11.25;100.00;98692.44;5053001;28;20039;-65
2023/03/15 02:03:18;;;;;;;0.20;0.20;;;;;;;11.25;100.00;98684.09;5052872;28;20178;-65
2023/03/15 02:05:53;;;;;;;0.20;0.20;;;;;;;11.25;100.00;98684.09;5052829;28;20040;-64
2023/03/15 02:08:24;;;;;;;0.20;0.20;;;;;;;11.28;100.00;98677.72;5052246;28;20094;-64
2023/03/15 02:10:55;;;;;;;0.20;0.20;;;;;;;11.20;100.00;98681.72;5052495;28;20025;-66
2023/03/15 02:13:23;;;;;;;0.20;0.20;;;;;;;11.16;100.00;98687.31;5052552;28;20036;-65
2023/03/15 02:15:52;;;;;;;0.25;0.25;;;;;;;11.20;100.00;98687.31;5053394;28;20083;-66
2023/03/15 02:18:19;;;;;;;0.20;0.20;;;;;;;11.21;100.00;98688.88;5053266;28;20378;-65
2023/03/15 02:21:12;;;;;;;0.20;0.20;;;;;;;11.27;100.00;98692.84;5053334;28;20391;-64
2023/03/15 02:23:39;;;;;;;0.30;0.30;;;;;;;11.32;100.00;98689.63;5052464;28;20029;-64
2023/03/15 02:26:21;;;;;;;0.20;0.20;;;;;;;11.36;100.00;98684.06;5052389;28;20112;-65
2023/03/15 02:28:51;;;;;;;0.20;0.20;;;;;;;11.11;100.00;98667.44;5052842;28;20047;-65
2023/03/15 02:31:20;;;;;;;0.20;0.20;;;;;;;11.16;100.00;98684.53;5053190;28;20021;-64
2023/03/15 02:33:51;;;;;;;0.20;0.20;;;;;;;11.10;100.00;98693.69;5053892;28;20033;-66
2023/03/15 02:36:26;;;;;;;0.20;0.20;;;;;;;11.13;100.00;98701.22;5052389;28;20017;-64
2023/03/15 02:38:59;;;;;;;0.20;0.20;;;;;;;11.01;100.00;98700.47;5052511;28;20116;-64
2023/03/15 02:41:41;;;;;;;0.30;0.30;;;;;;;10.83;100.00;98652.44;5053265;28;20044;-64
2023/03/15 02:44:22;;;;;;;0.20;0.20;;;;;;;11.05;100.00;98700.47;5053352;28;20040;-65
2023/03/15 02:46:53;;;;;;;0.20;0.20;;;;;;;10.95;100.00;98690.94;5052691;28;20120;-65
2023/03/15 02:49:24;;;;;;;0.20;0.20;;;;;;;11.11;100.00;98711.97;5056779;28;20067;-64
2023/03/15 02:51:49;;;;;;;0.20;0.20;;;;;;;10.87;100.00;98708.06;5056149;28;20037;-65
2023/03/15 02:54:15;;;;;;;0.20;0.20;;;;;;;10.91;100.00;98726.31;5056180;28;20174;-64
2023/03/15 02:56:41;;;;;;;0.20;0.20;;;;;;;10.89;100.00;98714.81;5056460;28;20029;-63
2023/03/15 02:59:11;;;;;;;0.20;0.20;;;;;;;10.87;100.00;98728.34;5055501;28;20048;-65
2023/03/15 03:01:37;;;;;;;0.20;0.20;;;;;;;10.86;100.00;98726.72;5056489;28;20033;-66
2023/03/15 03:04:05;;;;;;;0.20;0.20;;;;;;;10.87;100.00;98735.91;5056454;28;20478;-64
2023/03/15 03:06:31;;;;;;;0.20;0.20;;;;;;;10.97;100.00;98747.00;5056762;28;20032;-65
2023/03/15 03:09:02;;;;;;;0.25;0.25;;;;;;;11.03;100.00;98733.47;5058297;28;20373;-65
2023/03/15 03:11:27;;;;;;;0.30;0.30;;;;;;;11.22;100.00;98743.34;5058376;28;20025;-66
2023/03/15 03:13:58;;;;;;;0.20;0.20;;;;;;;11.19;100.00;98733.84;5057645;28;20033;-66
2023/03/15 03:16:25;;;;;;;0.20;0.20;;;;;;;11.13;100.00;98740.19;5055837;28;20033;-65
2023/03/15 03:18:53;;;;;;;0.20;0.20;;;;;;;11.20;100.00;98743.78;5055593;28;20033;-64
2023/03/15 03:21:21;;;;;;;0.20;0.20;;;;;;;11.43;100.00;98742.50;5056392;28;20051;-66
2023/03/15 03:23:49;;;;;;;0.20;0.20;;;;;;;11.25;100.00;98732.22;5055548;28;20024;-66
2023/03/15 03:26:17;;;;;;;0.20;0.20;;;;;;;11.41;100.00;98737.34;5056054;28;20047;-64
2023/03/15 03:28:50;;;;;;;0.20;0.20;;;;;;;11.28;100.00;98733.38;5055477;28;20077;-65
2023/03/15 03:31:26;;;;;;;0.20;0.20;;;;;;;11.19;100.00;98735.81;5055602;28;20498;-64
2023/03/15 03:33:57;;;;;;;0.20;0.20;;;;;;;11.18;100.00;98739.78;5055765;28;20468;-64
2023/03/15 03:36:28;;;;;;;0.20;0.20;;;;;;;11.18;100.00;98734.22;5055644;28;20025;-65
2023/03/15 03:38:56;;;;;;;0.20;0.20;;;;;;;11.22;100.00;98740.56;5055700;28;20025;-65
2023/03/15 03:41:21;;;;;;;0.20;0.20;;;;;;;11.15;100.00;98740.59;5055325;28;20025;-65
2023/03/15 03:43:47;;;;;;;0.20;0.20;;;;;;;11.10;100.00;98743.78;5055306;28;20036;-65
2023/03/15 03:46:15;;;;;;;0.20;0.20;;;;;;;11.23;100.00;98742.94;5055716;28;20116;-65
2023/03/15 03:48:43;;;;;;;0.30;0.30;;;;;;;11.10;100.00;98738.22;5055156;28;20025;-64
2023/03/15 03:51:11;;;;;;;0.30;0.30;;;;;;;11.09;100.00;98739.44;5055350;28;20535;-64
2023/03/15 03:53:37;;;;;;;0.20;0.20;;;;;;;11.07;100.00;98739.03;5055026;28;20112;-65
2023/03/15 03:56:07;;;;;;;0.20;0.20;;;;;;;10.99;100.00;98727.91;5055457;28;20025;-64
2023/03/15 03:58:37;;;;;;;0.20;0.20;;;;;;;10.99;100.00;98733.47;5066162;28;20045;-65
2023/03/15 04:01:03;;;;;;;0.20;0.20;;;;;;;10.88;100.00;98729.13;5074861;28;20028;-66
2023/03/15 04:03:29;;;;;;;0.20;0.20;;;;;;;10.92;100.00;98735.47;5075410;28;20047;-64
2023/03/15 04:05:57;;;;;;;0.20;0.20;;;;;;;10.92;100.00;98739.06;5075042;28;20567;-65
2023/03/15 04:08:28;;;;;;;0.30;0.30;;;;;;;10.83;100.00;98735.88;5075050;28;20030;-65
2023/03/15 04:10:56;;;;;;;0.20;0.20;;;;;;;10.80;100.00;98745.03;5075295;28;20025;-65
2023/03/15 04:13:23;;;;;;;0.20;0.20;;;;;;;10.82;100.00;98755.78;5074327;28;20032;-65
2023/03/15 04:15:48;;;;;;;0.20;0.20;;;;;;;10.72;100.00;98744.25;5076639;28;20036;-66
2023/03/15 04:18:20;;;;;;;0.20;0.20;;;;;;;10.70;100.00;98749.41;5075813;28;20036;-64
2023/03/15 04:20:46;;;;;;;0.20;0.20;;;;;;;10.73;100.00;98742.25;5074743;28;20081;-65
2023/03/15 04:23:17;;;;;;;0.20;0.20;;;;;;;10.76;100.00;98747.03;5076264;28;20028;-66
2023/03/15 04:25:47;;;;;;;0.20;0.20;;;;;;;10.69;100.00;98752.59;5075630;28;20051;-65
2023/03/15 04:28:13;;;;;;;0.20;0.20;;;;;;;10.71;100.00;98748.22;5074690;28;20024;-64
2023/03/15 04:30:41;;;;;;;0.30;0.30;;;;;;;10.67;100.00;98753.00;5074384;28;20040;-65
2023/03/15 04:33:08;;;;;;;0.20;0.20;;;;;;;10.60;100.00;98738.28;5075138;28;20119;-64
2023/03/15 04:35:35;;;;;;;0.20;0.20;;;;;;;10.64;100.00;98750.19;5074550;28;20039;-64
2023/03/15 04:38:02;;;;;;;0.20;0.20;;;;;;;10.75;100.00;98751.00;5074747;28;20033;-64
2023/03/15 04:40:29;;;;;;;0.20;0.20;;;;;;;10.70;100.00;98760.53;5074185;28;20127;-63
2023/03/15 04:42:57;;;;;;;0.20;0.20;;;;;;;10.69;100.00;98752.59;5074060;28;20024;-64
2023/03/15 04:45:23;;;;;;;0.30;0.30;;;;;;;10.85;100.00;98755.75;5074619;28;20051;-63
2023/03/15 04:47:52;;;;;;;0.20;0.20;;;;;;;10.80;100.00;98756.16;5074428;28;20109;-63
2023/03/15 04:50:18;;;;;;;0.30;0.30;;;;;;;10.86;100.00;98757.34;5074484;28;20366;-63
2023/03/15 04:52:44;;;;;;;0.20;0.20;;;;;;;11.00;100.00;98757.31;5073851;28;20021;-63
2023/03/15 04:55:11;;;;;;;0.20;0.20;;;;;;;10.89;100.00;98762.13;5073800;28;20033;-64
2023/03/15 04:57:36;;;;;;;0.20;0.20;;;;;;;10.88;100.00;98770.88;5069017;28;20051;-64
2023/03/15 05:00:09;;;;;;;0.20;0.20;;;;;;;10.79;100.00;98751.78;5053705;28;20441;-64
2023/03/15 05:02:38;;;;;;;0.20;0.20;;;;;;;10.81;100.00;98754.94;5054960;28;20033;-64
2023/03/15 05:05:05;;;;;;;0.20;0.20;;;;;;;10.83;100.00;98754.56;5055112;28;20375;-63
2023/03/15 05:07:32;;;;;;;0.20;0.20;;;;;;;10.84;100.00;98756.16;5054021;28;20470;-64
2023/03/15 05:10:01;;;;;;;0.20;0.20;;;;;;;10.86;100.00;98760.13;5053550;28;20025;-64
2023/03/15 05:12:29;;;;;;;0.20;0.20;;;;;;;10.88;100.00;98763.31;5053847;28;20041;-63
2023/03/15 05:14:55;;;;;;;0.20;0.20;;;;;;;10.87;100.00;98764.50;5053147;28;20033;-64
2023/03/15 05:17:23;;;;;;;0.20;0.20;;;;;;;11.01;100.00;98774.81;5053426;28;20039;-64
2023/03/15 05:19:48;;;;;;;0.20;0.20;;;;;;;10.93;100.00;98768.47;5053881;28;20022;-65
2023/03/15 05:22:20;;;;;;;0.20;0.20;;;;;;;10.94;100.00;98769.28;5053400;28;20464;-64
2023/03/15 05:24:46;;;;;;;0.20;0.20;;;;;;;11.05;100.00;98769.25;5053375;28;20024;-64
2023/03/15 05:27:12;;;;;;;0.20;0.20;;;;;;;11.03;100.00;98766.88;5054123;28;20021;-63
2023/03/15 05:29:40;;;;;;;0.20;0.20;;;;;;;11.08;100.00;98768.44;5053295;28;20024;-63
2023/03/15 05:32:09;;;;;;;0.20;0.20;;;;;;;11.11;100.00;98762.88;5053167;28;20033;-64
2023/03/15 05:34:39;;;;;;;0.20;0.20;;;;;;;11.14;100.00;98758.50;5053186;28;20151;-64
2023/03/15 05:37:07;;;;;;;0.20;0.20;;;;;;;11.16;100.00;98765.25;5053139;28;20141;-64
2023/03/15 05:39:35;;;;;;;0.20;0.20;;;;;;;11.24;100.00;98766.03;5052890;28;20029;-64
2023/03/15 05:42:03;;;;;;;0.20;0.20;;;;;;;11.29;100.00;98768.38;5053027;28;20025;-64
2023/03/15 05:44:29;;;;;;;0.30;0.30;;;;;;;11.31;100.00;98770.78;5053543;28;20029;-64
2023/03/15 05:46:59;;;;;;;0.20;0.20;;;;;;;11.31;100.00;98777.16;5054507;28;20468;-64
2023/03/15 05:49:25;;;;;;;0.20;0.20;;;;;;;11.40;100.00;98780.31;5052978;28;20029;-64
2023/03/15 05:51:53;;;;;;;0.20;0.20;;;;;;;11.40;100.00;98777.53;5053347;28;20052;-63
2023/03/15 05:54:21;;;;;;;0.20;0.20;;;;;;;11.49;100.00;98777.88;5053046;28;20033;-65
2023/03/15 05:56:49;;;;;;;0.20;0.20;;;;;;;11.48;100.00;98781.88;5053068;28;20056;-64
2023/03/15 05:59:14;;;;;;;0.20;0.20;;;;;;;11.55;100.00;98783.81;5052299;28;20052;-65
2023/03/15 06:01:44;;;;;;;0.20;0.20;;;;;;;11.54;100.00;98783.03;5052833;28;20025;-64
2023/03/15 06:04:12;;;;;;;0.30;0.30;;;;;;;11.51;100.00;98781.06;5056335;28;20036;-68
2023/03/15 06:06:38;;;;;;;0.20;0.20;;;;;;;11.51;100.00;98781.06;5057370;28;20025;-67
2023/03/15 06:09:06;;;;;;;0.20;0.20;;;;;;;11.68;100.00;98789.78;5054145;28;20436;-64
2023/03/15 06:11:34;;;;;;;0.20;0.20;;;;;;;11.89;100.00;98789.72;5052766;28;20032;-63
2023/03/15 06:14:05;;;;;;;0.20;0.20;;;;;;;11.77;100.00;98792.91;5052748;28;20060;-65
2023/03/15 06:16:30;;;;;;;0.20;0.20;;;;;;;11.77;100.00;98759.47;5052466;28;20083;-64
2023/03/15 06:18:59;;;;;;;0.20;0.20;;;;;;;11.89;100.00;98786.91;5052338;28;20033;-64
2023/03/15 06:21:27;;;;;;;0.20;0.20;;;;;;;11.89;100.00;98788.91;5052347;28;20039;-64
2023/03/15 06:23:59;;;;;;;0.20;0.20;;;;;;;11.95;100.00;98790.88;5052339;28;20033;-65
2023/03/15 06:26:24;;;;;;;0.20;0.20;;;;;;;12.12;100.00;98796.75;5053407;28;20075;-64
2023/03/15 06:28:53;;;;;;;0.20;0.20;;;;;;;12.14;100.00;98785.97;5052510;28;20025;-63
2023/03/15 06:31:23;;;;;;;0.20;0.20;;;;;;;12.30;100.00;98789.06;5052342;28;20021;-64
2023/03/15 06:33:53;;;;;;;0.20;0.20;;;;;;;12.38;100.00;98782.25;5053847;28;20033;-64
2023/03/15 06:36:18;;;;;;;0.20;0.20;;;;;;;12.43;100.00;98792.19;5053852;28;20025;-64
2023/03/15 06:38:48;;;;;;;0.20;0.20;;;;;;;12.46;100.00;98794.94;5052507;28;20376;-65
2023/03/15 06:41:16;;;;;;;0.20;0.20;;;;;;;12.63;100.00;98789.66;5052545;28;20477;-65
2023/03/15 06:43:44;;;;;;;0.20;0.20;;;;;;;12.73;100.00;98786.78;5053828;28;20095;-64
2023/03/15 06:46:12;;;;;;;0.20;0.20;;;;;;;12.92;100.00;98795.78;5052828;28;20021;-65
2023/03/15 06:48:37;;;;;;;0.25;0.25;;;;;;;13.04;100.00;98795.28;5053101;28;20025;-64
2023/03/15 06:51:04;;;;;;;0.20;0.20;;;;;;;13.02;100.00;98787.31;5052380;28;20545;-64
2023/03/15 06:53:30;;;;;;;0.20;0.20;;;;;;;13.03;100.00;98802.06;5053995;28;20035;-65
2023/03/15 06:55:59;;;;;;;0.20;0.20;;;;;;;13.07;100.00;98806.41;5052989;28;20029;-64
2023/03/15 06:58:24;;;;;;;0.20;0.20;;;;;;;13.73;100.00;98807.34;5051927;28;20049;-63
2023/03/15 07:00:50;;;;;;;0.20;0.20;;;;;;;15.14;100.00;98814.91;5052327;28;20482;-65
2023/03/15 07:03:15;;;;;;;0.20;0.20;;;;;;;15.93;82.60;98813.47;5052275;28;20040;-64
2023/03/15 07:05:44;;;;;;;0.20;0.20;;;;;;;16.96;71.38;98813.94;5052167;28;20417;-64
2023/03/15 07:08:12;;;;;;;0.20;0.20;;;;;;;17.74;66.94;98813.16;5051977;28;20386;-65
2023/03/15 07:10:38;;;;;;;0.20;0.20;;;;;;;18.36;61.28;98819.38;5051658;28;20109;-65
2023/03/15 07:13:06;;;;;;;0.20;0.20;;;;;;;18.97;63.00;98823.94;5051688;28;20068;-64
2023/03/15 07:15:35;;;;;;;0.20;0.20;;;;;;;19.06;65.78;98831.69;5051502;28;20033;-67
2023/03/15 07:18:03;;;;;;;0.20;0.20;;;;;;;18.65;66.81;98836.19;5052845;28;20056;-67
2023/03/15 07:20:30;;;;;;;0.20;0.20;;;;;;;18.99;65.37;98837.56;5052031;28;20193;-66
2023/03/15 07:22:58;;;;;;;0.20;0.20;;;;;;;19.04;63.38;98834.16;5051921;28;20064;-65
2023/03/15 07:25:26;;;;;;;0.20;0.20;;;;;;;18.20;67.53;98839.94;5051689;28;20112;-64
2023/03/15 07:27:52;;;;;;;0.20;0.20;;;;;;;17.69;68.98;98844.63;5051835;28;20028;-64
2023/03/15 07:30:22;;;;;;;0.20;0.20;;;;;;;16.94;71.53;98857.78;5051840;28;20044;-65
2023/03/15 07:32:49;;;;;;;0.20;0.20;;;;;;;16.87;74.27;98846.69;5052315;28;20025;-64
2023/03/15 07:35:17;;;;;;;0.20;0.20;;;;;;;16.63;75.15;98857.25;5054398;28;20083;-64
2023/03/15 07:37:50;;;;;;;0.20;0.20;;;;;;;16.67;74.38;98861.56;5055819;28;20057;-64
2023/03/15 07:40:18;;;;;;;0.20;0.20;;;;;;;17.63;69.97;98850.00;5056195;28;20033;-63
2023/03/15 07:42:43;;;;;;;0.20;0.20;;;;;;;17.63;66.91;98849.16;5057133;28;20107;-63
2023/03/15 07:45:12;;;;;;;0.20;0.20;;;;;;;18.15;62.73;98856.59;5055166;28;20067;-64
2023/03/15 07:47:38;;;;;;;0.20;0.20;;;;;;;18.19;62.01;98863.72;5055232;28;20025;-64
2023/03/15 07:50:07;;;;;;;0.20;0.20;;;;;;;18.16;64.09;98864.59;5055877;28;20037;-63
2023/03/15 07:52:35;;;;;;;0.20;0.20;;;;;;;18.11;62.14;98862.34;5054882;28;20053;-64
2023/03/15 07:55:06;;;;;;;0.20;0.20;;;;;;;18.56;59.66;98869.88;5055344;28;20397;-63
2023/03/15 07:57:32;;;;;;;0.20;0.20;;;;;;;17.94;57.42;98869.25;5060895;28;20048;-62
2023/03/15 08:00:01;;;;;;;0.25;0.25;;;;;;;17.95;57.99;98876.47;5095045;28;20032;-63
2023/03/15 08:02:31;;;;;;;0.20;0.20;;;;;;;17.77;57.73;98880.56;5078170;28;20032;-63
2023/03/15 08:04:57;;;;;;;0.20;0.20;;;;;;;17.20;59.81;98875.59;5078355;28;20035;-63
2023/03/15 08:07:23;;;;;;;0.20;0.20;;;;;;;17.02;60.95;98888.06;5078125;28;20052;-62
2023/03/15 08:09:48;;;;;;;0.20;0.20;;;;;;;17.39;59.67;98882.34;5078216;28;20071;-64
2023/03/15 08:12:16;;;;;;;0.20;0.20;;;;;;;16.57;60.13;98889.91;5078270;28;20035;-63
2023/03/15 08:14:44;;;;;;;0.20;0.20;;;;;;;17.34;59.87;98880.84;5078478;28;20027;-63
2023/03/15 08:17:11;;;;;;;0.20;0.20;;;;;;;17.23;58.08;98872.69;5077946;28;20031;-62
2023/03/15 08:19:38;;;;;;;0.20;0.20;;;;;;;17.78;58.94;98876.50;5078181;28;20102;-64
2023/03/15 08:22:05;;;;;;;0.20;0.20;;;;;;;17.77;57.69;98891.81;5078347;28;20028;-62
2023/03/15 08:24:34;;;;;;;0.20;0.20;;;;;;;17.97;55.68;98877.59;5077075;28;20035;-63
2023/03/15 08:27:00;;;;;;;0.20;0.20;;;;;;;17.43;57.29;98897.13;5095111;28;20391;-62
2023/03/15 08:29:25;;;;;;;0.20;0.20;;;;;;;17.37;60.31;98898.88;5077762;28;20038;-63
2023/03/15 08:31:51;;;;;;;0.20;0.20;;;;;;;17.73;61.04;98902.34;5094809;28;20363;-63
2023/03/15 08:34:20;;;;;;;0.20;0.20;;;;;;;18.26;60.25;98900.09;5078001;28;20356;-63
2023/03/15 08:36:53;;;;;;;0.20;0.20;;;;;;;18.20;57.87;98901.88;5078008;28;20043;-65
2023/03/15 08:39:19;;;;;;;0.20;0.20;;;;;;;18.42;58.25;98906.91;5077421;28;20067;-62
2023/03/15 08:41:46;;;;;;;0.20;0.20;;;;;;;17.72;58.79;98916.84;5077412;28;20063;-63
2023/03/15 08:44:14;;;;;;;0.20;0.20;;;;;;;16.98;60.21;98914.66;5076678;28;20040;-62
2023/03/15 08:46:40;;;;;;;0.20;0.20;;;;;;;16.87;58.86;98908.50;5077596;28;20056;-62
2023/03/15 08:49:05;;;;;;;0.20;0.20;;;;;;;16.22;56.83;98909.84;5077281;28;20389;-63
2023/03/15 08:51:33;;;;;;;0.20;0.20;;;;;;;16.10;55.94;98898.50;5076963;28;20024;-62
2023/03/15 08:54:04;;;;;;;0.20;0.20;;;;;;;17.51;53.00;98907.72;5077260;28;20028;-62
2023/03/15 08:56:31;;;;;;;0.20;0.20;;;;;;;17.53;51.79;98904.50;5095089;28;20028;-62
2023/03/15 08:58:59;;;;;;;0.20;0.20;;;;;;;18.12;51.52;98899.72;5078531;28;20040;-65
2023/03/15 09:01:25;;;;;;;0.20;0.20;;;;;;;18.20;50.15;98901.88;5054099;28;20502;-67
2023/03/15 09:03:53;;;;;;;0.20;0.20;;;;;;;18.61;49.15;98903.13;5054994;28;20041;-62
2023/03/15 09:06:21;;;;;;;0.20;0.20;;;;;;;19.05;47.91;98906.22;5056457;28;20063;-63
2023/03/15 09:08:52;;;;;;;0.10;0.10;;;;;;;18.69;47.71;98904.50;5055101;28;20059;-62
2023/03/15 09:11:21;;;;;;;0.20;0.20;;;;;;;18.86;47.84;98896.75;5054060;28;20424;-62
2023/03/15 09:13:49;;;;;;;0.20;0.20;;;;;;;19.59;45.33;98896.81;5053375;28;20456;-63
2023/03/15 09:16:17;;;;;;;0.20;0.20;;;;;;;19.66;46.62;98899.41;5054091;28;20464;-62
2023/03/15 09:18:45;;;;;;;0.10;0.10;;;;;;;19.96;45.99;98905.59;5053364;28;20037;-63
2023/03/15 09:21:10;;;;;;;0.20;0.20;;;;;;;19.73;46.32;98893.50;5054989;28;20079;-62
2023/03/15 09:23:38;;;;;;;0.20;0.20;;;;;;;19.72;45.02;98900.38;5053176;28;20036;-62
2023/03/15 09:26:07;;;;;;;0.20;0.20;;;;;;;18.58;47.87;98893.53;5053759;28;20025;-62
2023/03/15 09:28:38;;;;;;;0.10;0.10;;;;;;;18.94;48.58;98897.31;5053167;28;20040;-62
2023/03/15 09:31:06;;;;;;;0.20;0.20;;;;;;;18.96;48.01;98901.25;5053396;28;20479;-62
2023/03/15 09:33:32;;;;;;;0.20;0.20;;;;;;;19.21;48.38;98900.44;5053109;28;20087;-62
2023/03/15 09:36:01;;;;;;;0.20;0.20;;;;;;;19.27;48.24;98904.28;5052954;28;20025;-62
2023/03/15 09:38:29;;;;;;;0.20;0.20;;;;;;;19.87;48.68;98900.69;5053041;28;20035;-63
2023/03/15 09:40:58;;;;;;;0.20;0.20;;;;;;;19.84;46.88;98902.38;5052761;28;20021;-62
2023/03/15 09:44:05;;;;;;;0.20;0.20;;;;;;;19.87;46.11;98906.34;5053299;28;20029;-63
2023/03/15 09:46:43;;;;;;;0.20;0.20;;;;;;;20.19;45.87;98876.94;5054472;28;20031;-63
2023/03/15 09:49:27;;;;;;;0.20;0.20;;;;;;;20.10;42.75;98910.75;5054499;28;20033;-63
2023/03/15 09:52:04;;;;;;;0.20;0.20;;;;;;;20.23;43.98;98911.47;5053317;28;20028;-62
2023/03/15 09:54:51;;;;;;;0.20;0.20;;;;;;;19.74;43.82;98914.03;5052500;28;20059;-62
2023/03/15 09:57:30;;;;;;;0.20;0.20;;;;;;;19.03;45.61;98914.34;5053175;28;20028;-63
2023/03/15 10:00:03;;;;;;;0.20;0.20;;;;;;;18.14;48.65;98881.16;5072545;28;20040;-61
2023/03/15 10:02:36;;;;;;;0.20;0.20;;;;;;;19.47;46.37;98911.69;5074543;28;20029;-62
2023/03/15 10:05:15;;;;;;;0.20;0.20;;;;;;;19.09;44.93;98910.50;5073894;28;20039;-63
2023/03/15 10:07:46;;;;;;;0.20;0.20;;;;;;;18.15;47.57;98905.25;5089992;28;20059;-62
2023/03/15 10:10:20;;;;;;;0.13;0.13;;;;;;;17.64;49.32;98913.44;5073041;28;20537;-62
2023/03/15 10:12:56;;;;;;;0.20;0.20;;;;;;;17.84;48.70;98902.06;5072515;28;20043;-61
2023/03/15 10:15:52;;;;;;;0.20;0.20;;;;;;;16.93;51.01;98901.91;5072810;28;20078;-62
2023/03/15 10:18:26;;;;;;;0.20;0.20;;;;;;;17.39;52.24;98916.09;5089514;28;20025;-62
2023/03/15 10:21:21;;;;;;;0.20;0.20;;;;;;;17.03;50.26;98926.16;5072756;28;20533;-62
2023/03/15 10:23:51;;;;;;;0.20;0.20;;;;;;;16.88;52.48;98933.31;5073300;28;20037;-62
2023/03/15 10:26:23;;;;;;;0.20;0.20;;;;;;;16.56;52.46;98922.78;5073809;28;20479;-61
2023/03/15 10:28:53;;;;;;;0.20;0.20;;;;;;;16.93;50.58;98929.22;5072625;28;20032;-62
2023/03/15 10:31:26;;;;;;;0.20;0.20;;;;;;;16.78;51.69;98940.00;5089476;28;20025;-62
2023/03/15 10:33:54;;;;;;;0.20;0.20;;;;;;;17.03;50.39;98933.81;5072423;28;20021;-63
2023/03/15 10:36:26;;;;;;;0.20;0.20;;;;;;;17.29;51.67;98935.59;5072207;28;20029;-62
2023/03/15 10:38:54;;;;;;;0.20;0.20;;;;;;;18.42;51.03;98929.44;5072024;28;20025;-64
2023/03/15 10:41:37;;;;;;;0.20;0.20;;;;;;;18.00;52.08;98929.38;5072053;28;20029;-63
2023/03/15 10:44:08;;;;;;;0.20;0.20;;;;;;;18.66;50.11;98933.53;5072582;28;20032;-62
2023/03/15 10:46:36;;;;;;;0.20;0.20;;;;;;;19.30;48.25;98919.50;5071960;28;20046;-63
2023/03/15 10:49:14;;;;;;;0.20;0.20;;;;;;;19.96;46.42;98925.38;5071924;28;20474;-63
2023/03/15 10:51:45;;;;;;;0.20;0.20;;;;;;;20.51;45.23;98929.44;5071848;28;20076;-62
2023/03/15 10:54:17;;;;;;;0.20;0.20;;;;;;;19.94;44.00;98934.28;5071915;28;20032;-62
2023/03/15 10:57:11;;;;;;;0.20;0.20;;;;;;;20.56;44.21;98933.69;5072186;28;20028;-62
2023/03/15 10:59:56;;;;;;;0.15;0.15;;;;;;;20.74;42.30;98928.16;5051679;28;20132;-63
2023/03/15 11:02:24;;;;;;;0.20;0.20;;;;;;;21.18;41.92;98928.06;5052001;28;20029;-63
2023/03/15 11:05:03;;;;;;;0.20;0.20;;;;;;;20.29;44.61;98942.72;5051721;28;20033;-62
2023/03/15 11:07:35;;;;;;;0.20;0.20;;;;;;;19.46;48.67;98939.13;5051884;28;20530;-62
2023/03/15 11:10:03;;;;;;;0.20;0.20;;;;;;;19.42;51.78;98944.09;5056095;28;20476;-63
2023/03/15 11:12:33;;;;;;;0.20;0.20;;;;;;;19.42;50.80;98940.47;5055809;28;20032;-62
2023/03/15 11:15:17;;;;;;;0.10;0.10;;;;;;;19.00;50.45;98932.13;5057112;28;20028;-63
2023/03/15 11:17:45;;;;;;;0.10;0.10;;;;;;;18.95;50.90;98932.69;5055779;28;20029;-63
2023/03/15 11:20:30;;;;;;;0.20;0.20;;;;;;;18.64;51.78;98935.22;5055303;28;20082;-64
2023/03/15 11:22:57;;;;;;;0.15;0.15;;;;;;;18.14;53.53;98926.19;5055287;28;20124;-63
2023/03/15 11:25:32;;;;;;;0.20;0.20;;;;;;;17.90;55.91;98924.84;5055384;28;20502;-63
2023/03/15 11:28:01;;;;;;;0.20;0.20;;;;;;;18.29;54.28;98926.59;5057645;28;20100;-63
2023/03/15 11:30:30;;;;;;;0.20;0.20;;;;;;;19.18;46.91;98928.78;5055696;28;20144;-64
2023/03/15 11:33:05;;;;;;;0.20;0.20;;;;;;;20.04;44.43;98933.13;5056477;28;20486;-63
2023/03/15 11:35:39;;;;;;;0.20;0.20;;;;;;;20.33;46.24;98932.09;5055575;28;20047;-63
2023/03/15 11:38:23;;;;;;;0.20;0.20;;;;;;;20.22;48.14;98928.88;5054751;28;20060;-62
2023/03/15 11:40:55;;;;;;;0.20;0.20;;;;;;;20.07;48.77;98925.78;5055807;28;20506;-62